Time;durP1;ratioP1;P1;durP2;ratioP2;P2;SDS_P1;SDS_P2;PMS_P1;PMS_P2;Temp;Humidity;BMP_temperature;BMP_pressure;BME280_temperature;BME280_humidity;BME280_pressure;Samples;Min_cycle;Max_cycle;Signal;HPM_P1;HPM_P2
2021/12/25 00:00:06;;;;;;;4.20;0.20;;;-0.90;99.90;;;;;;4950041;29;20095;-79
2021/12/25 00:02:33;;;;;;;1.10;0.10;;;-1.00;99.90;;;;;;4967371;29;20043;-79
2021/12/25 00:04:59;;;;;;;1.93;0.10;;;-1.00;99.90;;;;;;4968064;29;20448;-80
2021/12/25 00:07:25;;;;;;;1.63;0.20;;;-0.90;99.90;;;;;;4965332;28;20039;-79
2021/12/25 00:09:50;;;;;;;3.20;1.00;;;-1.10;99.90;;;;;;4966693;28;20046;-79
2021/12/25 00:12:16;;;;;;;1.80;0.10;;;-0.90;99.90;;;;;;4964264;28;20039;-79
2021/12/25 00:14:41;;;;;;;2.43;0.43;;;-1.10;99.90;;;;;;4966956;28;20047;-79
2021/12/25 00:17:07;;;;;;;3.70;0.40;;;-1.10;99.90;;;;;;4963696;29;20031;-79
2021/12/25 00:19:33;;;;;;;1.80;0.10;;;-1.10;99.90;;;;;;4968128;28;20039;-80
2021/12/25 00:22:00;;;;;;;1.70;0.33;;;-1.20;99.90;;;;;;4964850;28;20066;-80
2021/12/25 00:24:25;;;;;;;2.23;0.30;;;-1.20;99.90;;;;;;4968229;29;20527;-79
2021/12/25 00:26:59;;;;;;;4.07;0.83;;;-1.30;99.90;;;;;;4964936;28;20051;-80
2021/12/25 00:29:36;;;;;;;4.23;0.37;;;-1.30;99.90;;;;;;4966886;28;20067;-79
2021/12/25 00:32:24;;;;;;;2.70;0.30;;;-1.40;99.90;;;;;;4966829;28;20047;-79
2021/12/25 00:34:50;;;;;;;3.17;0.20;;;-1.40;99.90;;;;;;4963565;29;20035;-80
2021/12/25 00:37:16;;;;;;;3.13;0.27;;;-1.40;99.90;;;;;;4967539;29;20043;-80
2021/12/25 00:39:45;;;;;;;3.23;0.20;;;-1.40;99.90;;;;;;4963525;28;20074;-80
2021/12/25 00:42:12;;;;;;;1.20;0.30;;;-1.40;99.90;;;;;;4967739;28;20039;-80
2021/12/25 00:44:38;;;;;;;2.60;1.50;;;-1.50;99.90;;;;;;4964946;29;20050;-79
2021/12/25 00:47:05;;;;;;;3.70;0.20;;;-1.50;99.90;;;;;;4967941;28;20054;-79
2021/12/25 00:49:31;;;;;;;3.93;0.20;;;-1.60;99.90;;;;;;4965842;29;20058;-79
2021/12/25 00:51:56;;;;;;;1.20;0.10;;;-1.60;99.90;;;;;;4968289;28;20035;-80
2021/12/25 00:54:22;;;;;;;0.63;0.10;;;-1.60;99.90;;;;;;4966147;28;20035;-80
2021/12/25 00:56:48;;;;;;;2.77;0.20;;;-1.60;99.90;;;;;;4966226;28;20066;-79
2021/12/25 00:59:14;;;;;;;0.93;0.10;;;-1.60;99.90;;;;;;4964593;29;20047;-79
2021/12/25 01:01:40;;;;;;;1.50;0.27;;;-1.70;99.90;;;;;;4967478;28;20147;-79
2021/12/25 01:04:06;;;;;;;2.60;0.73;;;-1.60;99.90;;;;;;4966318;29;20050;-79
2021/12/25 01:06:31;;;;;;;1.77;0.10;;;-1.70;99.90;;;;;;4966322;29;20047;-80
2021/12/25 01:08:57;;;;;;;0.90;0.10;;;-1.80;99.90;;;;;;4964754;28;20059;-79
2021/12/25 01:11:25;;;;;;;2.93;0.20;;;-1.80;99.90;;;;;;4966517;28;20043;-79
2021/12/25 01:13:58;;;;;;;2.27;0.10;;;-1.70;99.90;;;;;;4967703;29;20067;-79
2021/12/25 01:24:13;;;;;;;1.53;0.53;;;-1.90;99.90;;;;;;4971256;29;20094;-79
2021/12/25 01:47:46;;;;;;;1.00;0.10;;;-2.10;99.90;;;;;;4962443;28;20070;-79
2021/12/25 01:48:10;;;;;;;3.30;0.60;;;-2.20;99.90;;;;;;4963426;28;20082;-79
2021/12/25 01:50:36;;;;;;;1.10;0.10;;;-2.20;99.90;;;;;;4947707;29;20060;-79
2021/12/25 01:53:01;;;;;;;2.83;0.10;;;-2.20;99.90;;;;;;4962692;28;20047;-79
2021/12/25 01:55:29;;;;;;;0.90;0.10;;;-2.20;99.90;;;;;;4964076;28;20050;-79
2021/12/25 01:57:56;;;;;;;3.17;0.10;;;-2.30;99.90;;;;;;4961075;28;20050;-79
2021/12/25 02:00:44;;;;;;;0.70;0.20;;;-2.20;99.90;;;;;;4965670;28;20027;-79
2021/12/25 02:03:12;;;;;;;1.43;0.17;;;-2.30;99.90;;;;;;4962477;28;20031;-79
2021/12/25 02:05:38;;;;;;;1.33;0.20;;;-2.20;99.90;;;;;;4964667;29;20126;-79
2021/12/25 02:08:04;;;;;;;1.00;0.10;;;-2.30;99.90;;;;;;4963775;28;20518;-79
2021/12/25 02:10:30;;;;;;;2.17;0.10;;;-2.40;99.90;;;;;;4965596;28;20684;-79
2021/12/25 02:12:55;;;;;;;2.57;0.20;;;-2.40;99.90;;;;;;4964729;28;20043;-79
2021/12/25 02:15:24;;;;;;;1.57;0.13;;;-2.40;99.90;;;;;;4965184;28;20081;-79
2021/12/25 02:20:31;;;;;;;2.30;0.30;;;-2.50;99.90;;;;;;4964859;28;20050;-79
2021/12/25 02:23:02;;;;;;;3.27;0.10;;;-2.50;99.90;;;;;;4964514;28;20043;-79
2021/12/25 02:25:32;;;;;;;3.97;0.13;;;-2.50;99.90;;;;;;4963494;29;20043;-79
2021/12/25 02:27:57;;;;;;;1.07;0.20;;;-2.50;99.90;;;;;;4964242;28;20043;-79
2021/12/25 02:30:23;;;;;;;0.70;0.10;;;-2.50;99.90;;;;;;4957907;28;20035;-80
2021/12/25 02:32:49;;;;;;;1.50;0.10;;;-2.50;99.90;;;;;;4951739;28;20121;-79
2021/12/25 02:35:15;;;;;;;0.53;0.10;;;-2.50;99.90;;;;;;4952865;29;20058;-80
2021/12/25 02:37:44;;;;;;;4.03;0.23;;;-2.60;99.90;;;;;;4937162;28;20050;-79
2021/12/25 02:40:10;;;;;;;2.13;0.20;;;-2.60;99.90;;;;;;4966576;29;20569;-79
2021/12/25 02:42:36;;;;;;;1.57;0.73;;;-2.60;99.90;;;;;;4937661;29;20035;-79
2021/12/25 02:45:05;;;;;;;4.53;0.20;;;-2.60;99.90;;;;;;4952874;29;20126;-80
2021/12/25 02:47:31;;;;;;;2.10;1.27;;;-2.60;99.90;;;;;;4952931;28;20511;-80
2021/12/25 02:49:57;;;;;;;0.57;0.10;;;-2.70;99.90;;;;;;4953240;29;20028;-79
2021/12/25 02:52:23;;;;;;;2.53;0.10;;;-2.70;99.90;;;;;;4937117;29;20035;-79
2021/12/25 02:54:49;;;;;;;1.00;0.10;;;-2.70;99.90;;;;;;4953184;28;20122;-80
2021/12/25 02:57:15;;;;;;;0.43;0.10;;;-2.80;99.90;;;;;;4952616;29;20042;-79
2021/12/25 02:59:42;;;;;;;0.93;0.10;;;-2.80;99.90;;;;;;4937594;29;20232;-79
2021/12/25 03:02:17;;;;;;;0.30;0.10;;;-2.90;99.90;;;;;;4953336;28;20049;-79
2021/12/25 03:04:46;;;;;;;0.27;0.00;;;-2.90;99.90;;;;;;4949315;28;20408;-79
2021/12/25 03:07:12;;;;;;;1.87;0.10;;;-2.90;99.90;;;;;;4935965;29;20054;-80
2021/12/25 03:09:39;;;;;;;0.30;0.30;;;-2.90;99.90;;;;;;4952647;29;20051;-79
2021/12/25 03:12:07;;;;;;;0.57;0.10;;;-2.90;99.90;;;;;;4952153;28;20074;-79
2021/12/25 03:17:27;;;;;;;0.40;0.03;;;-2.90;99.90;;;;;;4951982;28;20074;-80
2021/12/25 03:19:54;;;;;;;1.93;0.10;;;-3.00;99.90;;;;;;4936709;29;20043;-79
2021/12/25 03:22:20;;;;;;;2.17;0.03;;;-3.00;99.90;;;;;;4952110;29;20055;-79
2021/12/25 03:24:46;;;;;;;0.80;0.40;;;-3.00;99.90;;;;;;4952702;28;20039;-79
2021/12/25 03:27:11;;;;;;;4.90;1.70;;;-3.00;99.90;;;;;;4952650;29;20055;-79
2021/12/25 03:29:40;;;;;;;0.50;0.30;;;-3.10;99.90;;;;;;4952378;28;20043;-80
2021/12/25 03:32:07;;;;;;;2.40;0.20;;;-3.10;99.90;;;;;;4951393;28;20122;-80
2021/12/25 03:34:32;;;;;;;2.00;0.10;;;-3.10;99.90;;;;;;4952149;28;20039;-80
2021/12/25 03:36:58;;;;;;;0.60;0.13;;;-3.10;99.90;;;;;;4951569;29;20039;-79
2021/12/25 03:39:24;;;;;;;1.13;0.23;;;-3.10;99.90;;;;;;4952217;29;20046;-79
2021/12/25 03:41:49;;;;;;;3.40;0.10;;;-3.20;99.90;;;;;;4952235;28;20028;-79
2021/12/25 03:44:15;;;;;;;1.10;0.10;;;-3.20;99.90;;;;;;4935790;29;20109;-79
2021/12/25 03:46:40;;;;;;;0.30;0.00;;;-3.20;99.90;;;;;;4949236;28;20472;-79
2021/12/25 03:49:28;;;;;;;1.10;0.20;;;-3.30;99.90;;;;;;4951375;29;20042;-79
2021/12/25 03:57:44;;;;;;;1.00;0.10;;;-3.30;99.90;;;;;;4949558;28;20047;-79
2021/12/25 04:00:14;;;;;;;0.83;0.10;;;-3.30;99.90;;;;;;4951700;29;20412;-79
2021/12/25 04:02:52;;;;;;;1.03;0.30;;;-3.20;99.90;;;;;;4951554;29;20435;-79
2021/12/25 04:05:20;;;;;;;1.50;0.10;;;-3.30;99.90;;;;;;4951951;29;20522;-80
2021/12/25 04:08:00;;;;;;;1.73;0.10;;;-3.30;99.90;;;;;;4952145;28;20042;-80
2021/12/25 04:10:28;;;;;;;0.50;0.10;;;-3.40;99.90;;;;;;4961513;28;20054;-80
2021/12/25 04:12:55;;;;;;;2.80;0.10;;;-3.40;99.90;;;;;;4960121;28;20036;-80
2021/12/25 04:15:21;;;;;;;0.40;0.07;;;-3.40;99.90;;;;;;4949414;29;20047;-80
2021/12/25 04:17:47;;;;;;;1.80;0.10;;;-3.40;99.90;;;;;;4952350;29;20140;-79
2021/12/25 04:20:12;;;;;;;1.20;0.17;;;-3.40;99.90;;;;;;4935735;28;20361;-79
2021/12/25 04:22:47;;;;;;;0.33;0.07;;;-3.40;99.90;;;;;;4936148;29;20035;-80
2021/12/25 04:25:18;;;;;;;1.13;0.07;;;-3.40;99.90;;;;;;4952134;29;20043;-79
2021/12/25 04:27:43;;;;;;;1.03;0.07;;;-3.50;99.90;;;;;;4951692;28;20118;-80
2021/12/25 04:42:37;;;;;;;0.70;0.07;;;-3.50;99.90;;;;;;4938094;29;20043;-79
2021/12/25 04:50:10;;;;;;;1.10;0.10;;;-3.60;99.90;;;;;;4950364;29;20055;-79
2021/12/25 05:05:59;;;;;;;0.70;0.10;;;-3.60;99.90;;;;;;4954136;29;20078;-80
2021/12/25 05:08:25;;;;;;;0.60;0.10;;;-3.60;99.90;;;;;;4936240;29;20112;-79
2021/12/25 05:10:50;;;;;;;1.03;0.10;;;-3.60;99.90;;;;;;4954567;28;20138;-79
2021/12/25 05:13:16;;;;;;;0.80;0.10;;;-3.60;99.90;;;;;;4954418;29;20043;-80
2021/12/25 05:15:42;;;;;;;2.43;0.00;;;-3.60;99.90;;;;;;4953925;28;20095;-80
2021/12/25 05:18:07;;;;;;;2.47;0.10;;;-3.60;99.90;;;;;;4954343;28;20043;-79
2021/12/25 05:20:33;;;;;;;0.40;0.03;;;-3.70;99.90;;;;;;4954311;28;20043;-79
2021/12/25 05:22:59;;;;;;;1.27;0.40;;;-3.60;99.90;;;;;;4954271;29;20031;-79
2021/12/25 05:25:24;;;;;;;2.17;0.10;;;-3.60;99.90;;;;;;4953775;29;20046;-80
2021/12/25 05:27:50;;;;;;;3.50;0.27;;;-3.70;99.90;;;;;;4953760;29;20046;-80
2021/12/25 05:30:18;;;;;;;0.87;0.10;;;-3.70;99.90;;;;;;4953792;28;20089;-79
2021/12/25 05:32:44;;;;;;;2.67;0.50;;;-3.70;99.90;;;;;;4953832;29;20042;-79
2021/12/25 05:35:10;;;;;;;1.80;0.93;;;-3.70;99.90;;;;;;4953619;29;20051;-80
2021/12/25 05:37:36;;;;;;;0.40;0.10;;;-3.70;99.90;;;;;;4953964;28;20150;-79
2021/12/25 05:40:04;;;;;;;0.83;0.00;;;-3.70;99.90;;;;;;4954186;29;20514;-79
2021/12/25 05:42:30;;;;;;;5.40;0.87;;;-3.70;99.90;;;;;;4951363;28;20063;-79
2021/12/25 05:44:55;;;;;;;0.37;0.03;;;-3.80;99.90;;;;;;4953034;29;20523;-79
2021/12/25 05:47:21;;;;;;;1.00;0.00;;;-3.80;99.90;;;;;;4953303;29;20050;-80
2021/12/25 05:49:47;;;;;;;1.70;0.13;;;-3.80;99.90;;;;;;4953369;29;20079;-80
2021/12/25 05:52:13;;;;;;;1.00;0.10;;;-3.90;99.90;;;;;;4953477;28;20489;-79
2021/12/25 05:54:38;;;;;;;1.40;0.10;;;-3.90;99.90;;;;;;4953460;28;20551;-80
2021/12/25 05:57:04;;;;;;;1.33;0.10;;;-3.90;99.90;;;;;;4952909;29;20046;-80
2021/12/25 05:59:30;;;;;;;1.90;0.30;;;-4.00;99.90;;;;;;4953311;28;20039;-79
2021/12/25 06:01:55;;;;;;;0.63;0.10;;;-4.00;99.90;;;;;;4953649;29;20043;-79
2021/12/25 06:04:21;;;;;;;0.40;0.00;;;-4.00;99.90;;;;;;4953375;29;20516;-80
2021/12/25 06:06:47;;;;;;;0.83;0.20;;;-4.00;99.90;;;;;;4952660;28;20043;-79
2021/12/25 06:09:12;;;;;;;0.80;0.10;;;-4.00;99.90;;;;;;4953181;28;20122;-80
2021/12/25 06:11:39;;;;;;;3.40;0.30;;;-4.00;99.90;;;;;;4937559;29;20043;-80
2021/12/25 06:14:10;;;;;;;1.20;0.00;;;-4.10;99.90;;;;;;4936818;28;20067;-80
2021/12/25 06:16:36;;;;;;;1.43;0.00;;;-4.10;99.90;;;;;;4952610;29;20035;-79
2021/12/25 06:19:03;;;;;;;0.70;0.23;;;-4.10;99.90;;;;;;4953545;29;20460;-79
2021/12/25 06:21:28;;;;;;;0.67;0.00;;;-4.10;99.90;;;;;;4953037;28;20522;-79
2021/12/25 06:23:54;;;;;;;0.93;0.00;;;-4.10;99.90;;;;;;4953112;28;20043;-79
2021/12/25 06:26:20;;;;;;;0.40;0.00;;;-4.10;99.90;;;;;;4952694;29;20035;-79
2021/12/25 06:28:46;;;;;;;3.83;0.20;;;-4.10;99.90;;;;;;4952843;29;20039;-80
2021/12/25 06:31:11;;;;;;;0.53;0.20;;;-4.20;99.90;;;;;;4953050;29;20407;-79
2021/12/25 06:33:37;;;;;;;6.43;0.23;;;-4.20;99.90;;;;;;4950686;29;20926;-80
2021/12/25 06:36:04;;;;;;;0.87;0.20;;;-4.20;99.90;;;;;;4952592;29;20138;-79
2021/12/25 06:38:29;;;;;;;0.97;0.10;;;-4.20;99.90;;;;;;4952785;29;20448;-79
2021/12/25 06:40:55;;;;;;;1.03;0.23;;;-4.20;99.90;;;;;;4953006;28;20047;-79
2021/12/25 06:43:21;;;;;;;1.67;0.10;;;-4.20;99.90;;;;;;4952683;29;20375;-80
2021/12/25 06:45:46;;;;;;;1.20;0.90;;;-4.30;99.90;;;;;;4952248;29;20046;-79
2021/12/25 06:48:12;;;;;;;1.63;0.10;;;-4.30;99.90;;;;;;4952294;28;20050;-80
2021/12/25 06:50:37;;;;;;;0.47;0.00;;;-4.30;99.90;;;;;;4936370;29;20043;-79
2021/12/25 06:53:03;;;;;;;2.00;0.83;;;-4.30;99.90;;;;;;4953131;29;20081;-79
2021/12/25 06:55:28;;;;;;;0.80;0.10;;;-4.40;99.90;;;;;;4952311;28;20031;-79
2021/12/25 06:57:57;;;;;;;1.03;0.10;;;-4.40;99.90;;;;;;4952267;28;20047;-80
2021/12/25 07:00:24;;;;;;;3.17;0.07;;;-4.40;99.90;;;;;;4952179;29;20046;-79
2021/12/25 07:02:50;;;;;;;0.87;0.20;;;-4.40;99.90;;;;;;4952277;28;20062;-79
2021/12/25 07:05:16;;;;;;;0.57;0.10;;;-4.40;99.90;;;;;;4951920;29;20103;-80
2021/12/25 07:07:43;;;;;;;0.77;0.00;;;-4.40;99.90;;;;;;4951964;29;20050;-80
2021/12/25 07:10:09;;;;;;;0.43;0.10;;;-4.40;99.90;;;;;;4949764;28;20039;-80
2021/12/25 07:12:37;;;;;;;0.50;0.10;;;-4.30;99.90;;;;;;4952461;29;20483;-79
2021/12/25 07:15:06;;;;;;;1.90;0.10;;;-4.40;99.90;;;;;;4952054;29;20069;-80
2021/12/25 07:17:33;;;;;;;0.73;0.10;;;-4.30;99.90;;;;;;4951935;29;20039;-80
2021/12/25 07:19:59;;;;;;;0.37;0.00;;;-4.40;99.90;;;;;;4951056;28;20038;-79
2021/12/25 07:22:25;;;;;;;5.37;0.23;;;-4.40;99.90;;;;;;4951506;28;20045;-79
2021/12/25 07:24:50;;;;;;;1.53;0.10;;;-4.40;99.90;;;;;;4951859;28;20035;-79
2021/12/25 07:27:16;;;;;;;0.43;0.10;;;-4.40;99.90;;;;;;4951776;28;20078;-79
2021/12/25 07:29:41;;;;;;;3.50;0.20;;;-4.40;99.90;;;;;;4951819;28;20038;-80
2021/12/25 07:32:07;;;;;;;1.23;0.10;;;-4.50;99.90;;;;;;4951682;28;20045;-79
2021/12/25 07:34:33;;;;;;;0.50;0.10;;;-4.50;99.90;;;;;;4951659;29;20596;-79
2021/12/25 07:37:00;;;;;;;0.97;0.33;;;-4.50;99.90;;;;;;4951019;28;20070;-80
2021/12/25 07:39:26;;;;;;;1.97;0.10;;;-4.50;99.90;;;;;;4935289;29;20150;-79
2021/12/25 07:41:51;;;;;;;0.40;0.00;;;-4.50;99.90;;;;;;4951377;28;20515;-80
2021/12/25 07:44:17;;;;;;;0.67;0.10;;;-4.50;99.90;;;;;;4951616;28;20098;-80
2021/12/25 07:46:44;;;;;;;0.50;0.10;;;-4.50;99.90;;;;;;4951213;29;20121;-79
2021/12/25 07:49:16;;;;;;;0.30;0.03;;;-4.50;99.90;;;;;;4951798;29;20126;-80
2021/12/25 07:51:42;;;;;;;2.23;0.00;;;-4.50;99.90;;;;;;4951365;28;20542;-80
2021/12/25 07:54:09;;;;;;;2.47;0.10;;;-4.60;99.90;;;;;;4950969;28;20048;-79
2021/12/25 07:56:35;;;;;;;0.70;0.10;;;-4.60;99.90;;;;;;4935404;29;20478;-79
2021/12/25 07:59:00;;;;;;;2.90;0.13;;;-4.50;99.90;;;;;;4951333;29;20078;-79
2021/12/25 08:01:26;;;;;;;1.73;0.10;;;-4.50;99.90;;;;;;4950755;29;20039;-79
2021/12/25 08:03:51;;;;;;;2.00;0.10;;;-4.50;99.90;;;;;;4951522;28;20129;-79
2021/12/25 08:06:17;;;;;;;2.70;0.20;;;-4.50;99.90;;;;;;4951136;29;20047;-79
2021/12/25 08:08:43;;;;;;;2.30;0.10;;;-4.60;99.90;;;;;;4951027;29;20042;-79
2021/12/25 08:11:09;;;;;;;4.33;0.80;;;-4.50;99.90;;;;;;4934830;29;20081;-79
2021/12/25 08:13:34;;;;;;;0.30;0.10;;;-4.50;99.90;;;;;;4950487;28;20086;-79
2021/12/25 08:16:00;;;;;;;1.13;0.17;;;-4.50;99.90;;;;;;4950813;29;20051;-79
2021/12/25 08:18:25;;;;;;;0.97;0.10;;;-4.50;99.90;;;;;;4950742;28;20169;-79
2021/12/25 08:20:51;;;;;;;1.20;0.20;;;-4.50;99.90;;;;;;4950753;29;20062;-79
2021/12/25 08:23:17;;;;;;;0.70;0.10;;;-4.50;99.90;;;;;;4950597;29;20178;-80
2021/12/25 08:25:43;;;;;;;1.27;0.30;;;-4.40;99.90;;;;;;4945801;28;20499;-79
2021/12/25 08:28:09;;;;;;;1.43;0.30;;;-4.40;99.90;;;;;;4950837;28;20039;-79
2021/12/25 08:30:35;;;;;;;0.73;0.10;;;-4.50;99.90;;;;;;4951528;28;20397;-78
2021/12/25 08:33:00;;;;;;;1.37;0.10;;;-4.40;99.90;;;;;;4934909;29;20174;-78
2021/12/25 08:35:28;;;;;;;0.73;0.10;;;-4.40;99.90;;;;;;4934599;29;20170;-78
2021/12/25 08:37:54;;;;;;;2.93;0.10;;;-4.40;99.90;;;;;;4950891;29;20396;-78
2021/12/25 08:40:20;;;;;;;1.23;0.10;;;-4.30;99.90;;;;;;4950955;29;20039;-79
2021/12/25 08:42:51;;;;;;;1.27;0.10;;;-4.30;99.90;;;;;;4951239;28;20399;-79
2021/12/25 08:48:02;;;;;;;1.52;0.60;;;-4.20;99.90;;;;;;4950759;28;20059;-78
2021/12/25 08:50:28;;;;;;;0.63;0.10;;;-4.10;99.90;;;;;;4950583;29;20393;-78
2021/12/25 08:52:54;;;;;;;0.40;0.00;;;-4.10;99.90;;;;;;4934891;29;20049;-78
2021/12/25 08:55:19;;;;;;;3.17;0.83;;;-4.00;99.90;;;;;;4950581;28;20499;-79
2021/12/25 08:57:45;;;;;;;1.63;0.70;;;-4.00;99.90;;;;;;4950676;28;20063;-79
2021/12/25 09:00:11;;;;;;;2.53;0.53;;;-4.00;99.90;;;;;;4950850;28;20039;-78
2021/12/25 09:02:37;;;;;;;1.90;0.00;;;-3.90;99.90;;;;;;4934507;29;20039;-78
2021/12/25 09:05:03;;;;;;;0.73;0.00;;;-3.90;99.90;;;;;;4950271;29;20047;-78
2021/12/25 09:07:29;;;;;;;0.53;0.10;;;-3.80;99.90;;;;;;4950328;28;20445;-78
2021/12/25 09:09:55;;;;;;;1.80;0.20;;;-3.80;99.90;;;;;;4950975;29;20043;-79
2021/12/25 09:12:22;;;;;;;0.70;0.10;;;-3.70;99.90;;;;;;4950454;28;20230;-78
2021/12/25 09:14:47;;;;;;;16.43;5.57;;;-3.70;99.90;;;;;;4950741;29;20119;-79
2021/12/25 09:17:14;;;;;;;4.90;0.93;;;-3.60;99.90;;;;;;4950370;29;20050;-78
2021/12/25 09:19:40;;;;;;;33.17;11.47;;;-3.60;99.90;;;;;;4950129;29;20036;-78
2021/12/25 09:22:08;;;;;;;15.17;6.87;;;-3.60;99.90;;;;;;4935974;29;20070;-79
2021/12/25 09:24:34;;;;;;;8.13;2.73;;;-3.50;99.90;;;;;;4934675;29;20039;-78
2021/12/25 09:27:00;;;;;;;3.20;0.10;;;-3.50;99.90;;;;;;4950154;29;20043;-79
2021/12/25 09:29:25;;;;;;;1.30;0.10;;;-3.40;99.90;;;;;;4950928;29;20066;-78
2021/12/25 09:31:51;;;;;;;2.37;0.10;;;-3.40;99.90;;;;;;4934134;28;20085;-79
2021/12/25 09:34:17;;;;;;;0.87;0.10;;;-3.40;99.90;;;;;;4950721;29;20043;-79
2021/12/25 09:36:42;;;;;;;2.47;0.10;;;-3.30;99.90;;;;;;4949478;28;20031;-79
2021/12/25 09:39:08;;;;;;;0.97;0.00;;;-3.30;99.90;;;;;;4934526;29;20094;-78
2021/12/25 09:41:34;;;;;;;0.50;0.10;;;-3.20;99.90;;;;;;4950233;28;20071;-78
2021/12/25 09:44:02;;;;;;;0.30;0.10;;;-3.20;99.90;;;;;;4938332;29;20043;-78
2021/12/25 09:46:28;;;;;;;0.80;0.10;;;-3.20;99.90;;;;;;4938849;29;20051;-79
2021/12/25 09:48:54;;;;;;;0.50;0.10;;;-3.10;99.90;;;;;;4954598;28;20039;-79
2021/12/25 09:51:21;;;;;;;0.97;0.10;;;-3.10;99.90;;;;;;4954516;29;20043;-79
2021/12/25 09:54:10;;;;;;;0.53;0.10;;;-3.00;99.90;;;;;;4954683;28;20047;-79
2021/12/25 09:56:38;;;;;;;0.73;0.10;;;-3.00;99.90;;;;;;4954305;29;20035;-79
2021/12/25 09:59:05;;;;;;;1.43;0.40;;;-3.00;99.90;;;;;;4954556;29;20106;-78
2021/12/25 10:01:49;;;;;;;2.60;0.53;;;-2.90;99.90;;;;;;4954384;28;20039;-79
2021/12/25 10:04:42;;;;;;;0.40;0.10;;;-2.80;99.90;;;;;;4954342;29;20043;-79
2021/12/25 10:07:28;;;;;;;0.53;0.10;;;-2.80;99.90;;;;;;4938455;29;20047;-79
2021/12/25 10:09:54;;;;;;;0.60;0.10;;;-2.80;99.90;;;;;;4954137;29;20055;-78
2021/12/25 10:12:20;;;;;;;0.90;0.27;;;-2.70;99.90;;;;;;4953902;28;20047;-79
2021/12/25 10:14:52;;;;;;;3.70;0.10;;;-2.70;99.90;;;;;;4935124;29;20102;-79
2021/12/25 10:17:21;;;;;;;1.17;0.20;;;-2.60;99.90;;;;;;4949335;29;20048;-79
2021/12/25 10:20:20;;;;;;;3.40;0.37;;;-2.60;99.90;;;;;;4953898;29;20543;-79
2021/12/25 10:23:11;;;;;;;0.80;0.10;;;-2.50;99.90;;;;;;4946686;29;20059;-79
2021/12/25 10:25:58;;;;;;;0.27;0.00;;;-2.50;99.90;;;;;;4953765;28;20043;-79
2021/12/25 10:28:38;;;;;;;0.53;0.10;;;-2.40;99.90;;;;;;4948544;29;20150;-79
2021/12/25 10:31:16;;;;;;;1.13;0.10;;;-2.20;99.90;;;;;;4954018;28;20055;-78
2021/12/25 10:33:53;;;;;;;2.50;0.17;;;-2.00;99.90;;;;;;4953519;28;20066;-78
2021/12/25 10:36:25;;;;;;;1.47;0.10;;;-1.80;99.90;;;;;;4937528;29;20448;-79
2021/12/25 10:39:00;;;;;;;0.43;0.10;;;-1.60;99.90;;;;;;4953916;29;20043;-79
2021/12/25 10:41:26;;;;;;;5.15;0.35;;;-1.50;99.90;;;;;;4954022;28;20035;-79
2021/12/25 10:44:08;;;;;;;2.43;0.20;;;-1.40;99.90;;;;;;4953530;28;20039;-79
2021/12/25 10:46:45;;;;;;;1.27;0.20;;;-1.30;99.90;;;;;;4937383;29;20043;-79
2021/12/25 10:49:15;;;;;;;1.07;0.20;;;-1.30;99.90;;;;;;4953538;29;20047;-79
2021/12/25 10:51:40;;;;;;;1.57;0.10;;;-1.20;99.90;;;;;;4937701;29;20407;-78
2021/12/25 10:54:10;;;;;;;1.03;0.20;;;-1.20;99.90;;;;;;4952147;28;20036;-78
2021/12/25 10:56:38;;;;;;;1.20;0.30;;;-1.10;99.90;;;;;;4953324;29;20039;-78
2021/12/25 10:59:08;;;;;;;1.97;0.10;;;-1.10;99.90;;;;;;4953246;29;20095;-79
2021/12/25 11:01:42;;;;;;;0.43;0.10;;;-1.00;99.90;;;;;;4950034;28;20050;-79
2021/12/25 11:04:36;;;;;;;1.80;0.00;;;-1.00;99.90;;;;;;4953561;29;20114;-79
2021/12/25 11:07:14;;;;;;;0.93;0.10;;;-1.00;99.90;;;;;;4950739;29;20131;-79
2021/12/25 11:09:40;;;;;;;3.70;0.80;;;-1.00;99.90;;;;;;4937360;29;20408;-78
2021/12/25 11:12:22;;;;;;;19.83;8.07;;;-0.90;99.90;;;;;;4936976;29;20039;-79
2021/12/25 11:14:48;;;;;;;30.10;11.33;;;-0.80;99.90;;;;;;4952955;29;20039;-79
2021/12/25 11:17:26;;;;;;;37.23;20.30;;;-0.70;99.90;;;;;;4936848;29;20039;-79
2021/12/25 11:20:00;;;;;;;0.90;0.10;;;-0.60;99.90;;;;;;4952439;29;20078;-79
2021/12/25 11:22:53;;;;;;;1.23;0.17;;;-0.60;99.90;;;;;;4953292;28;20035;-79
2021/12/25 11:25:22;;;;;;;0.63;0.10;;;-0.70;99.90;;;;;;4942525;29;20055;-79
2021/12/25 11:27:49;;;;;;;0.50;0.00;;;-0.90;99.90;;;;;;4952843;29;20085;-79
2021/12/25 11:30:18;;;;;;;1.00;0.10;;;-0.90;99.90;;;;;;4952675;28;20087;-79
2021/12/25 11:32:45;;;;;;;1.10;0.10;;;-0.80;99.90;;;;;;4953078;29;20420;-79
2021/12/25 11:35:11;;;;;;;0.63;0.10;;;-0.80;99.90;;;;;;4953303;29;20408;-79
2021/12/25 11:37:37;;;;;;;1.20;0.30;;;-0.70;99.90;;;;;;4952433;28;20031;-79
2021/12/25 11:40:04;;;;;;;1.47;0.73;;;-0.60;99.90;;;;;;4940034;28;20492;-79
2021/12/25 11:42:30;;;;;;;0.80;0.10;;;-0.50;99.90;;;;;;4937029;29;20122;-79
2021/12/25 11:44:56;;;;;;;1.33;0.20;;;-0.40;99.90;;;;;;4951382;29;20126;-79
2021/12/25 11:47:43;;;;;;;1.47;0.10;;;-0.30;99.90;;;;;;4953491;29;20042;-79
2021/12/25 11:50:20;;;;;;;0.83;0.10;;;-0.40;99.90;;;;;;4953700;28;20043;-80
2021/12/25 11:53:19;;;;;;;1.97;0.20;;;-0.40;99.90;;;;;;4953183;28;20504;-79
2021/12/25 11:56:15;;;;;;;1.83;0.10;;;-0.50;99.90;;;;;;4952579;29;20066;-80
2021/12/25 11:58:43;;;;;;;0.77;0.10;;;-0.30;99.90;;;;;;4953117;29;20082;-79
2021/12/25 12:01:19;;;;;;;2.60;0.53;;;-0.10;99.90;;;;;;4953001;28;20571;-80
2021/12/25 12:03:54;;;;;;;2.73;0.43;;;0.10;99.90;;;;;;4953276;29;20035;-80
2021/12/25 12:06:40;;;;;;;1.33;0.10;;;0.10;99.90;;;;;;4952571;28;20118;-80
2021/12/25 12:09:09;;;;;;;2.08;0.10;;;0.10;99.90;;;;;;4936949;29;20412;-80
2021/12/25 12:11:37;;;;;;;1.53;0.20;;;0.20;99.90;;;;;;4937208;29;20081;-79
2021/12/25 12:14:23;;;;;;;0.73;0.10;;;0.40;99.90;;;;;;4953126;29;20044;-79
2021/12/25 12:16:58;;;;;;;0.50;0.10;;;0.70;98.00;;;;;;4969095;28;20522;-79
2021/12/25 12:19:37;;;;;;;0.55;0.15;;;0.80;99.90;;;;;;4953454;29;20050;-80
2021/12/25 12:22:21;;;;;;;1.60;0.30;;;0.90;97.00;;;;;;4953547;28;20054;-80
2021/12/25 12:25:26;;;;;;;2.83;0.30;;;1.00;94.60;;;;;;4937320;29;20091;-79
2021/12/25 12:27:52;;;;;;;0.60;0.10;;;1.00;95.20;;;;;;4953247;28;20091;-80
2021/12/25 12:30:47;;;;;;;1.10;0.10;;;1.10;99.90;;;;;;4953106;28;20122;-80
2021/12/25 12:33:15;;;;;;;0.90;0.03;;;1.20;90.50;;;;;;4949121;29;20051;-80
2021/12/25 12:35:42;;;;;;;2.10;0.17;;;1.30;99.50;;;;;;4967555;28;20514;-80
2021/12/25 12:38:38;;;;;;;1.30;0.10;;;1.30;95.40;;;;;;4937258;29;20045;-79
2021/12/25 12:41:15;;;;;;;1.27;0.10;;;1.30;91.00;;;;;;4939736;29;20166;-80
2021/12/25 12:43:55;;;;;;;0.68;0.68;;;1.30;89.60;;;;;;4952529;29;20558;-80
2021/12/25 12:46:24;;;;;;;1.47;0.10;;;1.20;93.70;;;;;;4952495;29;20082;-80
2021/12/25 12:49:07;;;;;;;0.50;0.10;;;1.10;96.80;;;;;;4934241;29;20044;-79
2021/12/25 12:51:37;;;;;;;2.07;0.10;;;0.90;96.40;;;;;;4936400;29;20433;-80
2021/12/25 12:54:04;;;;;;;1.53;0.10;;;0.90;97.20;;;;;;4952676;29;20039;-80
2021/12/25 12:56:30;;;;;;;1.23;0.13;;;0.90;95.70;;;;;;4952187;29;20119;-80
2021/12/25 12:58:57;;;;;;;1.70;0.20;;;0.90;97.40;;;;;;4953021;29;20050;-80
2021/12/25 13:01:27;;;;;;;1.83;0.20;;;0.90;95.10;;;;;;4952590;29;20031;-80
2021/12/25 13:04:02;;;;;;;1.27;0.20;;;0.70;93.80;;;;;;4952211;29;20427;-80
2021/12/25 13:06:30;;;;;;;16.05;8.13;;;0.40;94.20;;;;;;4951853;28;20050;-80
2021/12/25 13:09:01;;;;;;;78.30;34.73;;;0.30;96.90;;;;;;4935270;28;20179;-79
2021/12/25 13:11:32;;;;;;;352.87;183.40;;;0.30;98.40;;;;;;4937983;29;20039;-80
2021/12/25 13:14:00;;;;;;;3.70;1.60;;;0.20;98.40;;;;;;4954972;28;20051;-79
2021/12/25 13:16:37;;;;;;;3.50;0.77;;;0.20;99.90;;;;;;4939917;29;20035;-79
2021/12/25 13:19:05;;;;;;;4.40;0.73;;;0.30;98.30;;;;;;4958187;29;20039;-79
2021/12/25 13:21:31;;;;;;;1.23;0.00;;;0.20;97.20;;;;;;4956911;28;20050;-79
2021/12/25 13:24:03;;;;;;;1.07;0.13;;;0.20;93.30;;;;;;4957383;29;20042;-79
2021/12/25 13:26:39;;;;;;;2.77;0.30;;;0.00;95.50;;;;;;4957184;29;20499;-79
2021/12/25 13:29:12;;;;;;;1.70;0.20;;;-0.10;97.90;;;;;;4956227;29;20074;-79
2021/12/25 13:31:41;;;;;;;0.80;0.10;;;-0.10;99.90;;;;;;4955144;28;20114;-79
2021/12/25 13:34:11;;;;;;;1.37;0.10;;;-0.10;99.90;;;;;;4952167;29;20050;-79
2021/12/25 13:36:38;;;;;;;1.57;0.20;;;0.00;99.10;;;;;;4955708;29;20396;-79
2021/12/25 13:39:11;;;;;;;2.63;0.20;;;0.20;99.90;;;;;;4955602;29;20050;-79
2021/12/25 13:41:43;;;;;;;1.40;0.10;;;0.40;96.50;;;;;;4939484;29;20031;-80
2021/12/25 13:44:15;;;;;;;1.93;0.87;;;0.30;96.90;;;;;;4939513;29;20086;-79
2021/12/25 13:46:45;;;;;;;1.00;0.10;;;0.30;98.40;;;;;;4955304;29;20047;-79
2021/12/25 13:49:29;;;;;;;2.03;0.10;;;0.50;99.70;;;;;;4955656;29;20050;-80
2021/12/25 13:51:55;;;;;;;1.00;0.10;;;0.70;96.20;;;;;;4955736;29;20050;-80
2021/12/25 13:54:21;;;;;;;1.83;0.10;;;0.80;99.80;;;;;;4955831;29;20039;-79
2021/12/25 13:56:48;;;;;;;3.00;0.10;;;0.70;99.90;;;;;;4955399;29;20035;-79
2021/12/25 13:59:14;;;;;;;1.63;0.33;;;0.70;98.10;;;;;;4955554;29;20158;-79
2021/12/25 14:01:40;;;;;;;4.43;0.17;;;0.60;97.20;;;;;;4955515;29;20546;-78
2021/12/25 14:04:10;;;;;;;13.67;1.80;;;0.30;98.70;;;;;;4954121;29;20046;-78
2021/12/25 14:06:37;;;;;;;0.70;0.10;;;0.30;95.10;;;;;;4953870;29;20045;-78
2021/12/25 14:09:04;;;;;;;0.40;0.30;;;0.50;98.20;;;;;;4954065;28;20054;-78